createdAt,value
2018-01-28T00:00:10.594Z,90.85
2018-01-28T00:01:12.463Z,90.66
2018-01-28T00:02:14.344Z,90.95
2018-01-28T00:03:16.160Z,91.04
2018-01-28T00:04:17.992Z,90.85
2018-01-28T00:05:19.865Z,90.76
2018-01-28T00:06:21.743Z,90.66
2018-01-28T00:07:23.626Z,90.85
2018-01-28T00:08:37.762Z,90.66
2018-01-28T00:09:39.624Z,90.76
2018-01-28T00:10:41.518Z,90.95
2018-01-28T00:11:43.349Z,90.95
2018-01-28T00:12:45.168Z,90.85
2018-01-28T00:13:46.957Z,90.95
2018-01-28T00:14:48.833Z,91.61
2018-01-28T00:15:50.714Z,90.76
2018-01-28T00:16:52.587Z,91.24
2018-01-28T00:18:06.711Z,91.33
2018-01-28T00:19:08.588Z,90.95
2018-01-28T00:20:10.470Z,90.95
2018-01-28T00:21:12.351Z,91.04
2018-01-28T00:22:14.169Z,92.18
2018-01-28T00:23:15.957Z,92.28
2018-01-28T00:24:17.844Z,92.28
2018-01-28T00:25:19.705Z,92.85
2018-01-28T00:26:21.577Z,92.18
2018-01-28T00:27:35.724Z,91.99
2018-01-28T00:28:37.599Z,92.09
2018-01-28T00:29:39.486Z,92.85
2018-01-28T00:30:41.337Z,92.85
2018-01-28T00:31:43.127Z,92.09
2018-01-28T00:32:44.923Z,91.99
2018-01-28T00:33:46.799Z,91.99
2018-01-28T00:34:48.654Z,91.42
2018-01-28T00:35:50.519Z,91.61
2018-01-28T00:37:04.657Z,90.76
2018-01-28T00:38:06.515Z,91.04
2018-01-28T00:39:08.377Z,90.95
2018-01-28T00:40:10.252Z,90.76
2018-01-28T00:41:12.048Z,90.76
2018-01-28T00:42:13.842Z,90.66
2018-01-28T00:43:15.718Z,90.66
2018-01-28T00:44:17.598Z,90.85
2018-01-28T00:45:19.438Z,91.52
2018-01-28T00:46:33.560Z,91.99
2018-01-28T00:47:35.434Z,92.28
2018-01-28T00:48:37.316Z,91.61
2018-01-28T00:49:39.188Z,91.33
2018-01-28T00:50:40.984Z,94.18
2018-01-28T00:51:42.774Z,94.27
2018-01-28T00:52:44.639Z,93.23
2018-01-28T00:53:46.518Z,92.56
2018-01-28T00:54:48.401Z,92.09
2018-01-28T00:56:02.539Z,91.14
2018-01-28T00:57:04.401Z,91.42
2018-01-28T00:58:06.270Z,91.24
2018-01-28T00:59:08.135Z,92.28
2018-01-28T01:00:09.926Z,91.99
2018-01-28T01:01:11.736Z,92.09
2018-01-28T01:02:13.593Z,92.18
2018-01-28T01:03:15.455Z,92.18
2018-01-28T01:04:17.320Z,93.04
2018-01-28T01:05:31.456Z,92.37
2018-01-28T01:06:33.333Z,91.89
2018-01-28T01:07:35.213Z,92.75
2018-01-28T01:08:37.092Z,92.66
2018-01-28T01:09:38.883Z,92.37
2018-01-28T01:10:40.697Z,92.47
2018-01-28T01:11:42.576Z,91.99
2018-01-28T01:12:44.452Z,92.66
2018-01-28T01:13:46.317Z,92.85
2018-01-28T01:15:00.463Z,92.47
2018-01-28T01:16:02.318Z,92.09
2018-01-28T01:17:04.178Z,91.99
2018-01-28T01:18:06.042Z,92.18
2018-01-28T01:19:07.855Z,92.75
2018-01-28T01:20:09.663Z,92.09
2018-01-28T01:21:11.522Z,91.33
2018-01-28T01:22:13.383Z,91.61
2018-01-28T01:23:15.263Z,91.61
2018-01-28T01:24:29.403Z,90.95
2018-01-28T01:25:31.264Z,90.85
2018-01-28T01:26:33.128Z,90.76
2018-01-28T01:27:35.001Z,90.95
2018-01-28T01:28:36.800Z,91.24
2018-01-28T01:29:38.588Z,91.14
2018-01-28T01:30:40.451Z,91.24
2018-01-28T01:31:42.324Z,90.66
2018-01-28T01:32:44.200Z,91.42
2018-01-28T01:33:58.326Z,91.89
2018-01-28T01:35:00.196Z,92.09
2018-01-28T01:36:02.051Z,92.18
2018-01-28T01:37:03.904Z,91.89
2018-01-28T01:38:05.695Z,90.66
2018-01-28T01:39:07.490Z,91.24
2018-01-28T01:40:09.362Z,92.47
2018-01-28T01:41:11.243Z,91.99
2018-01-28T01:42:13.115Z,91.99
2018-01-28T01:43:27.289Z,91.52
2018-01-28T01:44:29.140Z,92.18
2018-01-28T01:45:31.000Z,92.18
2018-01-28T01:46:32.879Z,91.42
2018-01-28T01:47:34.689Z,92.18
2018-01-28T01:48:36.488Z,92.28
2018-01-28T01:49:38.361Z,91.61
2018-01-28T01:50:40.238Z,91.61
2018-01-28T01:51:42.118Z,91.33
2018-01-28T01:52:56.313Z,91.33
2018-01-28T01:53:58.167Z,91.89
2018-01-28T01:55:00.030Z,92.47
2018-01-28T01:56:01.904Z,92.75
2018-01-28T01:57:03.721Z,93.13
2018-01-28T01:58:05.508Z,93.04
2018-01-28T01:59:07.381Z,93.32
2018-01-28T02:00:09.240Z,93.32
2018-01-28T02:01:11.093Z,92.28
2018-01-28T02:02:25.220Z,92.66
2018-01-28T02:04:44.762Z,91.99
2018-01-28T02:05:46.640Z,91.89
2018-01-28T02:06:48.417Z,91.80
2018-01-28T02:07:50.223Z,92.09
2018-01-28T02:08:52.072Z,91.99
2018-01-28T02:09:53.927Z,91.42
2018-01-28T02:10:55.805Z,91.24
2018-01-28T02:12:09.946Z,91.61
2018-01-28T02:13:11.809Z,91.14
2018-01-28T02:14:13.682Z,91.71
2018-01-28T02:15:15.537Z,90.76
2018-01-28T02:16:17.336Z,90.85
2018-01-28T02:17:19.136Z,91.42
2018-01-28T02:18:20.988Z,91.24
2018-01-28T02:19:22.847Z,92.75
2018-01-28T02:20:24.719Z,92.37
2018-01-28T02:21:38.844Z,92.18
2018-01-28T02:22:40.698Z,92.37
2018-01-28T02:23:42.555Z,91.52
2018-01-28T02:24:44.428Z,91.33
2018-01-28T02:25:46.224Z,91.14
2018-01-28T02:26:48.058Z,91.04
2018-01-28T02:27:49.871Z,92.18
2018-01-28T02:28:51.725Z,92.18
2018-01-28T02:29:53.599Z,91.99
2018-01-28T02:31:07.738Z,91.61
2018-01-28T02:32:09.596Z,91.14
2018-01-28T02:33:11.455Z,90.85
2018-01-28T02:34:13.327Z,91.14
2018-01-28T02:35:15.122Z,91.24
2018-01-28T02:36:16.930Z,92.37
2018-01-28T02:37:18.803Z,91.99
2018-01-28T02:38:20.676Z,92.37
2018-01-28T02:39:22.537Z,92.47
2018-01-28T02:40:36.671Z,92.56
2018-01-28T02:41:38.523Z,92.37
2018-01-28T02:42:40.386Z,92.75
2018-01-28T02:43:42.255Z,92.09
2018-01-28T02:44:44.057Z,91.52
2018-01-28T02:45:45.857Z,91.61
2018-01-28T02:46:47.718Z,91.61
2018-01-28T02:47:49.594Z,92.75
2018-01-28T02:48:51.471Z,92.18
2018-01-28T02:50:05.588Z,92.18
2018-01-28T02:51:07.471Z,92.56
2018-01-28T02:52:09.350Z,92.75
2018-01-28T02:53:11.218Z,91.14
2018-01-28T02:54:13.028Z,91.89
2018-01-28T02:55:14.811Z,91.52
2018-01-28T02:56:16.700Z,91.24
2018-01-28T02:57:18.522Z,91.99
2018-01-28T02:58:20.371Z,92.66
2018-01-28T02:59:34.492Z,92.85
2018-01-28T03:00:36.355Z,92.47
2018-01-28T03:01:38.230Z,91.61
2018-01-28T03:02:40.085Z,91.33
2018-01-28T03:03:41.894Z,91.33
2018-01-28T03:04:43.700Z,92.47
2018-01-28T03:05:45.559Z,92.66
2018-01-28T03:06:47.431Z,91.99
2018-01-28T03:07:49.286Z,91.52
2018-01-28T03:09:03.427Z,91.14
2018-01-28T03:10:05.286Z,92.47
2018-01-28T03:11:07.162Z,91.89
2018-01-28T03:12:09.036Z,91.52
2018-01-28T03:13:10.847Z,91.80
2018-01-28T03:14:12.638Z,91.61
2018-01-28T03:15:14.494Z,91.42
2018-01-28T03:16:16.348Z,91.52
2018-01-28T03:17:18.199Z,90.95
2018-01-28T03:18:32.328Z,89.90
2018-01-28T03:19:34.201Z,90.47
2018-01-28T03:20:36.082Z,90.85
2018-01-28T03:21:37.953Z,91.52
2018-01-28T03:22:39.742Z,90.76
2018-01-28T03:23:41.534Z,90.47
2018-01-28T03:24:43.393Z,90.76
2018-01-28T03:25:45.270Z,91.42
2018-01-28T03:26:47.138Z,90.47
2018-01-28T03:28:01.318Z,89.72
2018-01-28T03:29:03.192Z,90.28
2018-01-28T03:30:05.069Z,90.00
2018-01-28T03:31:06.940Z,89.53
2018-01-28T03:32:08.733Z,89.81
2018-01-28T03:33:10.526Z,90.66
2018-01-28T03:34:12.396Z,90.09
2018-01-28T03:35:14.254Z,89.14
2018-01-28T03:36:16.114Z,89.33
2018-01-28T03:37:30.284Z,89.72
2018-01-28T03:38:32.161Z,89.81
2018-01-28T03:39:34.018Z,89.62
2018-01-28T03:40:35.894Z,90.19
2018-01-28T03:41:37.709Z,90.85
2018-01-28T03:42:39.515Z,90.85
2018-01-28T03:43:41.375Z,90.09
2018-01-28T03:44:43.233Z,89.62
2018-01-28T03:45:45.106Z,90.47
2018-01-28T03:46:59.234Z,90.19
2018-01-28T03:48:01.106Z,89.90
2018-01-28T03:49:02.964Z,89.76
2018-01-28T03:50:04.822Z,90.42
2018-01-28T03:51:06.632Z,90.42
2018-01-28T03:52:08.444Z,89.95
2018-01-28T03:53:10.312Z,89.81
2018-01-28T03:54:12.167Z,90.71
2018-01-28T03:55:14.027Z,90.33
2018-01-28T03:56:28.152Z,89.47
2018-01-28T03:57:30.020Z,90.61
2018-01-28T03:58:31.878Z,89.67
2018-01-28T03:59:33.739Z,89.28
2018-01-28T04:00:35.527Z,89.00
2018-01-28T04:01:37.333Z,89.09
2018-01-28T04:02:39.185Z,88.81
2018-01-28T04:03:41.043Z,89.38
2018-01-28T04:04:42.920Z,89.67
2018-01-28T04:05:57.048Z,89.95
2018-01-28T04:06:58.921Z,89.76
2018-01-28T04:08:00.783Z,90.23
2018-01-28T04:09:02.637Z,90.14
2018-01-28T04:10:04.447Z,89.38
2018-01-28T04:11:06.245Z,88.90
2018-01-28T04:12:08.096Z,88.90
2018-01-28T04:13:09.975Z,88.71
2018-01-28T04:14:11.831Z,88.62
2018-01-28T04:15:25.968Z,89.00
2018-01-28T04:16:27.843Z,88.81
2018-01-28T04:17:29.695Z,89.47
2018-01-28T04:18:31.554Z,90.23
2018-01-28T04:19:33.362Z,90.05
2018-01-28T04:20:35.147Z,89.67
2018-01-28T04:21:37.009Z,89.09
2018-01-28T04:22:38.888Z,89.38
2018-01-28T04:23:40.760Z,89.09
2018-01-28T04:24:54.905Z,87.86
2018-01-28T04:25:56.785Z,88.34
2018-01-28T04:26:58.660Z,89.00
2018-01-28T04:28:00.516Z,89.47
2018-01-28T04:29:02.308Z,89.86
2018-01-28T04:30:04.097Z,89.76
2018-01-28T04:31:05.957Z,89.19
2018-01-28T04:32:07.828Z,88.43
2018-01-28T04:33:09.682Z,89.00
2018-01-28T04:34:23.826Z,89.28
2018-01-28T04:35:25.700Z,89.00
2018-01-28T04:36:27.553Z,89.28
2018-01-28T04:37:29.408Z,89.38
2018-01-28T04:38:31.206Z,89.00
2018-01-28T04:39:32.994Z,88.62
2018-01-28T04:40:34.854Z,88.90
2018-01-28T04:41:36.705Z,89.00
2018-01-28T04:42:38.579Z,89.09
2018-01-28T04:43:52.723Z,89.57
2018-01-28T04:44:54.601Z,88.71
2018-01-28T04:45:56.470Z,89.09
2018-01-28T04:46:58.331Z,89.00
2018-01-28T04:48:00.128Z,88.81
2018-01-28T04:49:01.937Z,89.19
2018-01-28T04:50:03.815Z,88.90
2018-01-28T04:51:05.671Z,89.47
2018-01-28T04:52:07.546Z,88.24
2018-01-28T04:53:21.688Z,88.15
2018-01-28T04:54:23.565Z,88.53
2018-01-28T04:55:25.440Z,88.81
2018-01-28T04:56:27.302Z,89.57
2018-01-28T04:57:29.114Z,89.19
2018-01-28T04:58:30.919Z,88.62
2018-01-28T04:59:32.781Z,88.81
2018-01-28T05:00:34.655Z,89.28
2018-01-28T05:01:36.513Z,89.38
2018-01-28T05:02:50.632Z,89.28
2018-01-28T05:03:52.508Z,88.81
2018-01-28T05:04:54.385Z,88.53
2018-01-28T05:05:56.261Z,89.00
2018-01-28T05:06:58.053Z,89.67
2018-01-28T05:07:59.839Z,88.71
2018-01-28T05:09:01.693Z,88.81
2018-01-28T05:10:03.551Z,89.38
2018-01-28T05:11:05.428Z,90.05
2018-01-28T05:12:19.570Z,89.19
2018-01-28T05:13:21.427Z,89.19
2018-01-28T05:14:23.286Z,89.86
2018-01-28T05:15:25.162Z,90.05
2018-01-28T05:16:26.973Z,90.05
2018-01-28T05:17:28.761Z,88.81
2018-01-28T05:18:30.621Z,88.81
2018-01-28T05:19:32.478Z,89.09
2018-01-28T05:20:34.355Z,89.76
2018-01-28T05:21:48.495Z,89.19
2018-01-28T05:22:50.358Z,89.38
2018-01-28T05:23:52.227Z,89.00
2018-01-28T05:24:54.105Z,88.43
2018-01-28T05:25:55.920Z,89.19
2018-01-28T05:26:57.705Z,89.38
2018-01-28T05:27:59.557Z,89.47
2018-01-28T05:29:01.415Z,89.38
2018-01-28T05:30:03.274Z,88.90
2018-01-28T05:31:17.422Z,89.28
2018-01-28T05:32:19.317Z,88.71
2018-01-28T05:33:21.187Z,88.71
2018-01-28T05:34:23.046Z,88.62
2018-01-28T05:35:24.862Z,88.81
2018-01-28T05:36:26.641Z,89.28
2018-01-28T05:37:28.501Z,89.00
2018-01-28T05:38:30.356Z,89.09
2018-01-28T05:39:32.226Z,88.90
2018-01-28T05:40:46.401Z,88.71
2018-01-28T05:41:48.260Z,88.62
2018-01-28T05:42:50.133Z,88.90
2018-01-28T05:43:52.008Z,88.90
2018-01-28T05:44:53.799Z,88.81
2018-01-28T05:45:55.588Z,88.53
2018-01-28T05:46:57.447Z,89.19
2018-01-28T05:47:59.325Z,89.19
2018-01-28T05:49:01.201Z,88.90
2018-01-28T05:50:15.339Z,88.81
2018-01-28T05:51:17.198Z,88.81
2018-01-28T05:52:19.059Z,88.85
2018-01-28T05:53:20.934Z,88.85
2018-01-28T05:54:22.745Z,88.57
2018-01-28T05:55:24.539Z,87.90
2018-01-28T05:56:26.416Z,88.28
2018-01-28T05:57:28.290Z,88.28
2018-01-28T05:58:30.143Z,88.47
2018-01-28T05:59:44.317Z,88.57
2018-01-28T06:00:46.174Z,88.85
2018-01-28T06:01:48.042Z,88.57
2018-01-28T06:02:49.900Z,88.47
2018-01-28T06:03:51.696Z,88.19
2018-01-28T06:04:53.508Z,88.47
2018-01-28T06:05:55.384Z,87.52
2018-01-28T06:06:57.262Z,87.24
2018-01-28T06:07:59.138Z,87.81
2018-01-28T06:09:13.278Z,87.62
2018-01-28T06:10:15.138Z,87.05
2018-01-28T06:11:16.991Z,87.62
2018-01-28T06:12:18.855Z,87.52
2018-01-28T06:13:20.668Z,86.76
2018-01-28T06:14:22.455Z,86.67
2018-01-28T06:15:24.313Z,87.43
2018-01-28T06:16:26.166Z,87.34
2018-01-28T06:17:28.027Z,87.34
2018-01-28T06:18:42.170Z,87.43
2018-01-28T06:19:44.045Z,86.86
2018-01-28T06:20:45.897Z,86.95
2018-01-28T06:21:47.755Z,87.14
2018-01-28T06:22:49.561Z,87.90
2018-01-28T06:23:51.354Z,87.52
2018-01-28T06:24:53.210Z,87.14
2018-01-28T06:25:55.069Z,87.14
2018-01-28T06:26:56.947Z,87.24
2018-01-28T06:28:11.140Z,87.43
2018-01-28T06:29:13.018Z,87.34
2018-01-28T06:30:14.867Z,87.52
2018-01-28T06:31:16.726Z,87.24
2018-01-28T06:32:18.542Z,87.34
2018-01-28T06:33:20.350Z,87.24
2018-01-28T06:34:22.213Z,87.14
2018-01-28T06:35:24.063Z,86.76
2018-01-28T06:36:25.923Z,86.57
2018-01-28T06:37:40.063Z,86.76
2018-01-28T06:38:41.929Z,87.14
2018-01-28T06:39:43.808Z,87.62
2018-01-28T06:40:45.685Z,88.28
2018-01-28T06:41:47.495Z,88.00
2018-01-28T06:42:49.289Z,87.81
2018-01-28T06:43:51.154Z,88.67
2018-01-28T06:44:53.031Z,87.81
2018-01-28T06:45:54.891Z,88.28
2018-01-28T06:47:09.035Z,87.43
2018-01-28T06:48:10.902Z,87.81
2018-01-28T06:49:12.771Z,87.90
2018-01-28T06:50:14.632Z,87.90
2018-01-28T06:51:16.451Z,88.57
2018-01-28T06:52:18.262Z,88.19
2018-01-28T06:53:20.123Z,88.42
2018-01-28T06:54:22.001Z,87.43
2018-01-28T06:55:23.862Z,87.34
2018-01-28T06:56:38.035Z,87.34
2018-01-28T06:57:39.909Z,87.34
2018-01-28T06:58:42.025Z,87.43
2018-01-28T06:59:43.904Z,87.28
2018-01-28T07:00:45.692Z,86.80
2018-01-28T07:01:47.500Z,86.61
2018-01-28T07:02:49.373Z,86.57
2018-01-28T07:03:51.234Z,87.05
2018-01-28T07:04:53.134Z,86.99
2018-01-28T07:06:07.308Z,87.38
2018-01-28T07:07:09.223Z,87.47
2018-01-28T07:08:11.084Z,87.38
2018-01-28T07:09:12.964Z,87.47
2018-01-28T07:10:14.781Z,87.57
2018-01-28T07:11:16.598Z,87.28
2018-01-28T07:12:19.146Z,87.57
2018-01-28T07:13:21.091Z,87.57
2018-01-28T07:14:22.952Z,88.33
2018-01-28T07:15:37.145Z,88.23
2018-01-28T07:16:39.008Z,88.23
2018-01-28T07:17:40.887Z,87.90
2018-01-28T07:18:42.767Z,88.90
2018-01-28T07:19:44.581Z,88.71
2018-01-28T07:20:46.423Z,88.85
2018-01-28T07:21:48.327Z,88.90
2018-01-28T07:22:50.211Z,88.61
2018-01-28T07:23:52.095Z,89.00
2018-01-28T07:25:06.240Z,89.37
2018-01-28T07:26:08.120Z,89.28
2018-01-28T07:27:09.975Z,89.66
2018-01-28T07:28:11.834Z,90.14
2018-01-28T07:29:13.687Z,90.33
2018-01-28T07:30:15.509Z,90.14
2018-01-28T07:31:17.361Z,89.18
2018-01-28T07:32:19.225Z,89.37
2018-01-28T07:33:21.106Z,89.37
2018-01-28T07:34:35.253Z,89.09
2018-01-28T07:35:37.130Z,89.85
2018-01-28T07:36:38.996Z,90.04
2018-01-28T07:37:40.876Z,90.33
2018-01-28T07:38:42.691Z,89.94
2018-01-28T07:39:44.483Z,89.94
2018-01-28T07:40:46.345Z,90.33
2018-01-28T07:41:48.226Z,89.94
2018-01-28T07:42:50.113Z,90.42
2018-01-28T07:44:04.256Z,90.80
2018-01-28T07:45:06.122Z,90.89
2018-01-28T07:46:07.995Z,91.08
2018-01-28T07:47:09.862Z,90.89
2018-01-28T07:48:11.672Z,90.80
2018-01-28T07:49:13.468Z,90.89
2018-01-28T07:50:15.329Z,91.56
2018-01-28T07:51:17.210Z,91.47
2018-01-28T07:52:19.087Z,92.22
2018-01-28T07:53:33.266Z,92.18
2018-01-28T07:54:35.152Z,92.41
2018-01-28T07:55:37.032Z,92.13
2018-01-28T07:56:38.909Z,93.18
2018-01-28T07:57:40.705Z,93.08
2018-01-28T07:58:42.501Z,92.66
2018-01-28T07:59:44.363Z,93.13
2018-01-28T08:00:46.228Z,93.41
2018-01-28T08:01:48.086Z,93.32
2018-01-28T08:03:02.284Z,93.70
2018-01-28T08:04:04.170Z,93.89
2018-01-28T08:05:06.041Z,93.84
2018-01-28T08:06:07.901Z,93.75
2018-01-28T08:07:09.696Z,93.65
2018-01-28T08:08:11.516Z,93.65
2018-01-28T08:09:13.374Z,93.75
2018-01-28T08:10:15.242Z,93.18
2018-01-28T08:11:17.077Z,93.08
2018-01-28T08:12:31.264Z,92.70
2018-01-28T08:13:33.180Z,93.27
2018-01-28T08:14:35.035Z,93.27
2018-01-28T08:15:36.954Z,93.55
2018-01-28T08:16:38.885Z,93.37
2018-01-28T08:17:40.838Z,93.18
2018-01-28T08:18:42.958Z,92.99
2018-01-28T08:19:44.895Z,93.65
2018-01-28T08:20:46.711Z,93.37
2018-01-28T08:22:00.843Z,93.55
2018-01-28T08:23:02.722Z,93.75
2018-01-28T08:24:04.575Z,93.18
2018-01-28T08:25:06.455Z,93.46
2018-01-28T08:26:08.282Z,93.94
2018-01-28T08:27:10.101Z,94.13
2018-01-28T08:28:11.975Z,93.94
2018-01-28T08:29:13.847Z,93.65
2018-01-28T08:30:15.706Z,93.18
2018-01-28T08:31:29.834Z,93.37
2018-01-28T08:32:31.699Z,93.79
2018-01-28T08:33:33.581Z,94.42
2018-01-28T08:34:35.434Z,94.60
2018-01-28T08:35:37.235Z,94.74
2018-01-28T08:36:39.050Z,94.98
2018-01-28T08:37:40.932Z,94.89
2018-01-28T08:38:42.796Z,94.70
2018-01-28T08:39:44.655Z,94.98
2018-01-28T08:40:58.780Z,94.89
2018-01-28T08:42:00.646Z,94.60
2018-01-28T08:43:02.527Z,94.98
2018-01-28T08:44:04.405Z,94.98
2018-01-28T08:45:06.217Z,94.70
2018-01-28T08:46:08.017Z,95.08
2018-01-28T08:47:09.830Z,95.17
2018-01-28T08:48:11.647Z,95.08
2018-01-28T08:49:13.461Z,94.70
2018-01-28T08:50:27.607Z,94.32
2018-01-28T08:51:29.492Z,94.42
2018-01-28T08:52:31.350Z,94.42
2018-01-28T08:53:33.222Z,94.13
2018-01-28T08:54:35.023Z,94.03
2018-01-28T08:55:36.836Z,94.13
2018-01-28T08:56:38.692Z,94.70
2018-01-28T08:57:40.552Z,95.08
2018-01-28T08:58:42.416Z,94.60
2018-01-28T08:59:56.564Z,94.37
2018-01-28T09:00:58.416Z,93.79
2018-01-28T09:02:00.289Z,93.23
2018-01-28T09:03:02.169Z,93.23
2018-01-28T09:04:03.990Z,93.32
2018-01-28T09:05:05.897Z,92.94
2018-01-28T09:06:07.771Z,92.70
2018-01-28T09:07:09.652Z,92.89
2018-01-28T09:08:11.512Z,92.36
2018-01-28T09:09:25.656Z,92.89
2018-01-28T09:10:27.562Z,92.89
2018-01-28T09:11:29.427Z,93.18
2018-01-28T09:12:31.305Z,92.89
2018-01-28T09:13:33.120Z,92.89
2018-01-28T09:14:34.915Z,93.27
2018-01-28T09:15:36.781Z,93.18
2018-01-28T09:16:38.663Z,93.18
2018-01-28T09:17:40.525Z,93.18
2018-01-28T09:18:54.646Z,93.65
2018-01-28T09:19:56.506Z,93.55
2018-01-28T09:20:58.370Z,93.08
2018-01-28T09:22:00.247Z,93.37
2018-01-28T09:23:02.047Z,93.18
2018-01-28T09:24:03.861Z,92.75
2018-01-28T09:25:05.723Z,93.41
2018-01-28T09:26:07.581Z,92.75
2018-01-28T09:27:09.443Z,92.65
2018-01-28T09:28:23.591Z,92.61
2018-01-28T09:29:25.473Z,92.36
2018-01-28T09:30:27.331Z,92.36
2018-01-28T09:31:29.231Z,92.27
2018-01-28T09:32:31.008Z,92.36
2018-01-28T09:33:32.827Z,92.18
2018-01-28T09:34:34.706Z,92.18
2018-01-28T09:35:36.588Z,91.99
2018-01-28T09:36:38.476Z,92.08
2018-01-28T09:37:52.683Z,92.08
2018-01-28T09:38:54.576Z,91.51
2018-01-28T09:39:56.519Z,90.94
2018-01-28T09:40:58.400Z,91.03
2018-01-28T09:42:00.225Z,90.75
2018-01-28T09:43:02.042Z,91.13
2018-01-28T09:44:03.926Z,90.84
2018-01-28T09:45:05.802Z,90.66
2018-01-28T09:46:07.695Z,90.84
2018-01-28T09:47:21.825Z,89.80
2018-01-28T09:48:23.737Z,90.08
2018-01-28T09:49:25.606Z,90.28
2018-01-28T09:50:27.457Z,90.08
2018-01-28T09:51:29.278Z,90.37
2018-01-28T09:52:31.097Z,90.56
2018-01-28T09:53:32.951Z,90.66
2018-01-28T09:54:34.809Z,90.18
2018-01-28T09:55:36.669Z,90.56
2018-01-28T09:56:50.779Z,90.56
2018-01-28T09:57:52.606Z,89.89
2018-01-28T09:58:54.465Z,89.94
2018-01-28T09:59:56.347Z,89.89
2018-01-28T10:00:58.182Z,89.47
2018-01-28T10:01:59.973Z,89.27
2018-01-28T10:03:01.774Z,89.18
2018-01-28T10:04:03.637Z,88.70
2018-01-28T10:05:05.520Z,88.32
2018-01-28T10:06:19.695Z,88.89
2018-01-28T10:07:21.568Z,88.89
2018-01-28T10:08:23.495Z,89.08
2018-01-28T10:09:25.348Z,88.60
2018-01-28T10:10:27.148Z,88.70
2018-01-28T10:11:28.946Z,88.23
2018-01-28T10:12:30.829Z,88.04
2018-01-28T10:13:32.709Z,88.04
2018-01-28T10:14:34.591Z,88.13
2018-01-28T10:15:48.742Z,88.13
2018-01-28T10:16:50.630Z,87.65
2018-01-28T10:17:52.508Z,88.42
2018-01-28T10:18:54.366Z,88.13
2018-01-28T10:19:56.164Z,87.94
2018-01-28T10:20:57.960Z,88.42
2018-01-28T10:21:59.827Z,88.23
2018-01-28T10:23:01.709Z,87.46
2018-01-28T10:24:03.572Z,87.85
2018-01-28T10:25:17.701Z,87.56
2018-01-28T10:26:19.676Z,87.46
2018-01-28T10:27:21.557Z,87.46
2018-01-28T10:28:23.434Z,87.37
2018-01-28T10:29:25.258Z,87.56
2018-01-28T10:30:27.058Z,86.80
2018-01-28T10:31:28.920Z,86.80
2018-01-28T10:32:30.801Z,86.32
2018-01-28T10:33:32.678Z,85.94
2018-01-28T10:34:46.819Z,86.51
2018-01-28T10:35:48.707Z,86.32
2018-01-28T10:36:50.587Z,86.04
2018-01-28T10:37:52.479Z,86.42
2018-01-28T10:38:54.271Z,86.13
2018-01-28T10:39:56.070Z,86.42
2018-01-28T10:40:57.925Z,86.13
2018-01-28T10:41:59.798Z,86.36
2018-01-28T10:43:01.677Z,85.99
2018-01-28T10:44:15.809Z,85.41
2018-01-28T10:45:17.675Z,85.56
2018-01-28T10:46:19.526Z,85.99
2018-01-28T10:47:21.388Z,85.60
2018-01-28T10:48:23.190Z,85.13
2018-01-28T10:49:25.006Z,85.41
2018-01-28T10:50:26.868Z,85.22
2018-01-28T10:51:28.725Z,85.13
2018-01-28T10:52:30.598Z,85.37
2018-01-28T10:53:44.727Z,85.28
2018-01-28T10:54:46.588Z,85.66
2018-01-28T10:55:48.446Z,86.42
2018-01-28T10:56:50.320Z,86.32
2018-01-28T10:57:52.134Z,86.13
2018-01-28T10:58:53.942Z,86.13
2018-01-28T10:59:55.821Z,85.89
2018-01-28T11:00:57.702Z,85.28
2018-01-28T11:01:59.557Z,85.03
2018-01-28T11:03:13.702Z,84.84
2018-01-28T11:04:15.572Z,84.84
2018-01-28T11:05:17.430Z,84.27
2018-01-28T11:06:19.298Z,84.46
2018-01-28T11:07:21.087Z,84.56
2018-01-28T11:08:22.886Z,84.08
2018-01-28T11:09:24.758Z,83.41
2018-01-28T11:10:26.644Z,83.89
2018-01-28T11:11:28.528Z,84.17
2018-01-28T11:12:42.688Z,83.98
2018-01-28T11:13:44.560Z,84.46
2018-01-28T11:14:46.443Z,84.84
2018-01-28T11:15:48.344Z,84.36
2018-01-28T11:16:50.137Z,84.36
2018-01-28T11:17:51.951Z,84.13
2018-01-28T11:18:53.813Z,84.89
2018-01-28T11:19:55.693Z,85.56
2018-01-28T11:20:57.556Z,85.66
2018-01-28T11:22:11.710Z,85.66
2018-01-28T11:23:13.601Z,85.56
2018-01-28T11:24:15.456Z,85.22
2018-01-28T11:25:17.331Z,85.22
2018-01-28T11:26:19.160Z,85.32
2018-01-28T11:27:20.976Z,85.08
2018-01-28T11:28:22.852Z,85.37
2018-01-28T11:29:24.716Z,85.32
2018-01-28T11:30:26.599Z,85.47
2018-01-28T11:31:40.746Z,85.56
2018-01-28T11:32:42.628Z,86.04
2018-01-28T11:33:44.507Z,85.66
2018-01-28T11:34:46.406Z,86.13
2018-01-28T11:35:48.246Z,86.42
2018-01-28T11:36:50.043Z,86.22
2018-01-28T11:37:51.995Z,85.80
2018-01-28T11:38:53.842Z,85.41
2018-01-28T11:39:55.708Z,84.94
2018-01-28T11:41:09.877Z,84.84
2018-01-28T11:42:11.774Z,84.84
2018-01-28T11:43:13.657Z,84.46
2018-01-28T11:44:15.519Z,84.31
2018-01-28T11:45:17.327Z,84.22
2018-01-28T11:46:19.152Z,84.12
2018-01-28T11:47:21.019Z,83.36
2018-01-28T11:48:22.880Z,83.45
2018-01-28T11:49:24.760Z,83.17
2018-01-28T11:50:38.920Z,82.89
2018-01-28T11:51:40.778Z,83.03
2018-01-28T11:52:42.669Z,83.32
2018-01-28T11:53:44.552Z,83.41
2018-01-28T11:54:46.370Z,84.08
2018-01-28T11:55:48.210Z,83.03
2018-01-28T11:56:50.067Z,83.32
2018-01-28T11:57:51.959Z,83.41
2018-01-28T11:58:53.825Z,83.80
2018-01-28T12:00:08.314Z,83.26
2018-01-28T12:01:10.144Z,83.45
2018-01-28T12:02:12.000Z,83.07
2018-01-28T12:03:13.861Z,83.07
2018-01-28T12:04:15.662Z,83.17
2018-01-28T12:05:17.485Z,83.03
2018-01-28T12:06:19.343Z,82.93
2018-01-28T12:07:21.217Z,82.93
2018-01-28T12:08:23.104Z,82.93
2018-01-28T12:09:37.264Z,83.13
2018-01-28T12:10:39.125Z,83.32
2018-01-28T12:11:41.012Z,83.03
2018-01-28T12:12:42.883Z,82.98
2018-01-28T12:13:44.683Z,82.98
2018-01-28T12:14:46.495Z,82.69
2018-01-28T12:15:48.334Z,82.69
2018-01-28T12:16:50.139Z,82.31
2018-01-28T12:17:52.020Z,82.21
2018-01-28T12:19:06.160Z,82.69
2018-01-28T12:20:08.033Z,82.89
2018-01-28T12:21:09.896Z,82.60
2018-01-28T12:22:11.771Z,82.69
2018-01-28T12:23:13.591Z,82.79
2018-01-28T12:24:15.415Z,82.60
2018-01-28T12:25:17.317Z,82.03
2018-01-28T12:26:19.196Z,82.03
2018-01-28T12:27:21.090Z,82.21
2018-01-28T12:28:35.230Z,82.50
2018-01-28T12:29:37.119Z,82.69
2018-01-28T12:30:38.977Z,82.21
2018-01-28T12:31:40.884Z,82.12
2018-01-28T12:32:42.633Z,82.03
2018-01-28T12:33:44.472Z,82.12
2018-01-28T12:34:46.370Z,82.21
2018-01-28T12:35:48.239Z,82.12
2018-01-28T12:36:50.135Z,82.41
2018-01-28T12:38:04.260Z,82.50
2018-01-28T12:39:06.202Z,82.12
2018-01-28T12:40:08.102Z,82.12
2018-01-28T12:41:10.199Z,82.03
2018-01-28T12:42:13.339Z,81.74
2018-01-28T12:43:16.306Z,81.74
2018-01-28T12:44:18.721Z,81.65
2018-01-28T12:45:21.483Z,81.55
2018-01-28T12:46:23.383Z,81.74
2018-01-28T12:47:37.524Z,81.74
2018-01-28T12:48:39.422Z,81.93
2018-01-28T12:49:41.333Z,81.93
2018-01-28T12:50:43.272Z,81.84
2018-01-28T12:51:45.067Z,82.07
2018-01-28T12:52:46.898Z,82.03
2018-01-28T12:53:48.777Z,81.74
2018-01-28T12:54:50.665Z,82.12
2018-01-28T12:55:52.581Z,82.12
2018-01-28T12:57:06.784Z,81.84
2018-01-28T12:58:08.738Z,81.65
2018-01-28T12:59:10.578Z,82.69
2018-01-28T13:00:12.522Z,81.36
2018-01-28T13:01:14.395Z,82.50
2018-01-28T13:02:16.211Z,82.50
2018-01-28T13:03:18.086Z,82.50
2018-01-28T13:04:19.961Z,82.03
2018-01-28T13:05:21.821Z,81.98
2018-01-28T13:06:35.956Z,82.56
2018-01-28T13:07:37.827Z,83.03
2018-01-28T13:08:39.703Z,83.41
2018-01-28T13:09:41.586Z,84.17
2018-01-28T13:10:43.406Z,83.61
2018-01-28T13:11:45.220Z,84.17
2018-01-28T13:12:47.096Z,83.70
2018-01-28T13:13:48.966Z,83.61
2018-01-28T13:14:50.826Z,83.89
2018-01-28T13:16:04.977Z,83.98
2018-01-28T13:17:06.868Z,83.80
2018-01-28T13:18:08.746Z,83.89
2018-01-28T13:19:10.606Z,83.89
2018-01-28T13:20:12.405Z,83.98
2018-01-28T13:21:14.235Z,84.17
2018-01-28T13:22:16.095Z,84.17
2018-01-28T13:23:17.990Z,83.51
2018-01-28T13:24:19.875Z,83.98
2018-01-28T13:25:34.034Z,84.17
2018-01-28T13:26:35.967Z,84.17
2018-01-28T13:27:38.025Z,84.56
2018-01-28T13:28:40.039Z,83.98
2018-01-28T13:29:41.890Z,83.89
2018-01-28T13:30:43.708Z,84.17
2018-01-28T13:31:45.581Z,84.08
2018-01-28T13:32:47.442Z,83.84
2018-01-28T13:33:49.309Z,83.51
2018-01-28T13:35:03.446Z,83.80